sensor_id;sensor_type;location;lat;lon;timestamp;temperature;humidity
67641;SHT31;54434;50.096;20.082;2023-12-29T00:00:57;5.60;76.21
67641;SHT31;54434;50.096;20.082;2023-12-29T00:03:43;5.60;76.24
67641;SHT31;54434;50.096;20.082;2023-12-29T00:06:20;5.60;76.24
67641;SHT31;54434;50.096;20.082;2023-12-29T00:08:56;5.59;76.29
67641;SHT31;54434;50.096;20.082;2023-12-29T00:11:34;5.58;76.38
67641;SHT31;54434;50.096;20.082;2023-12-29T00:14:11;5.57;76.43
67641;SHT31;54434;50.096;20.082;2023-12-29T00:16:47;5.57;76.44
67641;SHT31;54434;50.096;20.082;2023-12-29T00:19:24;5.58;76.45
67641;SHT31;54434;50.096;20.082;2023-12-29T00:22:00;5.58;76.50
67641;SHT31;54434;50.096;20.082;2023-12-29T00:24:38;5.57;76.60
67641;SHT31;54434;50.096;20.082;2023-12-29T00:27:14;5.57;76.77
67641;SHT31;54434;50.096;20.082;2023-12-29T00:29:52;5.58;76.85
67641;SHT31;54434;50.096;20.082;2023-12-29T00:32:28;5.59;76.87
67641;SHT31;54434;50.096;20.082;2023-12-29T00:35:06;5.57;76.94
67641;SHT31;54434;50.096;20.082;2023-12-29T00:37:43;5.57;77.09
67641;SHT31;54434;50.096;20.082;2023-12-29T00:40:19;5.59;77.10
67641;SHT31;54434;50.096;20.082;2023-12-29T00:42:56;5.61;77.10
67641;SHT31;54434;50.096;20.082;2023-12-29T00:45:32;5.63;77.11
67641;SHT31;54434;50.096;20.082;2023-12-29T00:48:09;5.63;77.20
67641;SHT31;54434;50.096;20.082;2023-12-29T00:50:46;5.63;77.20
67641;SHT31;54434;50.096;20.082;2023-12-29T00:53:22;5.65;77.22
67641;SHT31;54434;50.096;20.082;2023-12-29T00:56:00;5.68;77.19
67641;SHT31;54434;50.096;20.082;2023-12-29T00:58:43;5.69;77.18
67641;SHT31;54434;50.096;20.082;2023-12-29T01:01:19;5.70;77.21
67641;SHT31;54434;50.096;20.082;2023-12-29T01:03:56;5.71;77.13
67641;SHT31;54434;50.096;20.082;2023-12-29T01:06:33;5.71;77.13
67641;SHT31;54434;50.096;20.082;2023-12-29T01:09:09;5.75;77.06
67641;SHT31;54434;50.096;20.082;2023-12-29T01:11:46;5.75;77.00
67641;SHT31;54434;50.096;20.082;2023-12-29T01:14:22;5.76;77.00
67641;SHT31;54434;50.096;20.082;2023-12-29T01:16:58;5.77;76.98
67641;SHT31;54434;50.096;20.082;2023-12-29T01:19:36;5.78;77.00
67641;SHT31;54434;50.096;20.082;2023-12-29T01:22:13;5.80;76.99
67641;SHT31;54434;50.096;20.082;2023-12-29T01:24:52;5.83;76.97
67641;SHT31;54434;50.096;20.082;2023-12-29T01:27:30;5.83;77.00
67641;SHT31;54434;50.096;20.082;2023-12-29T01:30:09;5.84;77.05
67641;SHT31;54434;50.096;20.082;2023-12-29T01:32:46;5.85;77.03
67641;SHT31;54434;50.096;20.082;2023-12-29T01:35:22;5.86;77.01
67641;SHT31;54434;50.096;20.082;2023-12-29T01:37:58;5.88;76.97
67641;SHT31;54434;50.096;20.082;2023-12-29T01:40:45;5.88;76.89
67641;SHT31;54434;50.096;20.082;2023-12-29T01:43:23;5.87;76.84
67641;SHT31;54434;50.096;20.082;2023-12-29T01:45:59;5.82;76.80
67641;SHT31;54434;50.096;20.082;2023-12-29T01:48:36;5.78;76.74
67641;SHT31;54434;50.096;20.082;2023-12-29T01:51:13;5.71;76.80
67641;SHT31;54434;50.096;20.082;2023-12-29T01:53:51;5.67;76.80
67641;SHT31;54434;50.096;20.082;2023-12-29T01:56:30;5.61;76.84
67641;SHT31;54434;50.096;20.082;2023-12-29T01:59:07;5.51;76.86
67641;SHT31;54434;50.096;20.082;2023-12-29T02:01:56;5.44;77.09
67641;SHT31;54434;50.096;20.082;2023-12-29T02:04:32;5.42;77.13
67641;SHT31;54434;50.096;20.082;2023-12-29T02:07:10;5.37;77.20
67641;SHT31;54434;50.096;20.082;2023-12-29T02:09:47;5.32;77.40
67641;SHT31;54434;50.096;20.082;2023-12-29T02:12:23;5.32;77.63
67641;SHT31;54434;50.096;20.082;2023-12-29T02:15:00;5.28;77.97
67641;SHT31;54434;50.096;20.082;2023-12-29T02:17:40;5.26;78.23
67641;SHT31;54434;50.096;20.082;2023-12-29T02:20:23;5.26;78.38
67641;SHT31;54434;50.096;20.082;2023-12-29T02:23:00;5.27;78.48
67641;SHT31;54434;50.096;20.082;2023-12-29T02:25:37;5.27;78.48
67641;SHT31;54434;50.096;20.082;2023-12-29T02:28:17;5.30;78.36
67641;SHT31;54434;50.096;20.082;2023-12-29T02:31:04;5.29;78.20
67641;SHT31;54434;50.096;20.082;2023-12-29T02:33:47;5.26;78.37
67641;SHT31;54434;50.096;20.082;2023-12-29T02:36:27;5.25;78.40
67641;SHT31;54434;50.096;20.082;2023-12-29T02:39:04;5.22;78.39
67641;SHT31;54434;50.096;20.082;2023-12-29T02:41:41;5.21;78.44
67641;SHT31;54434;50.096;20.082;2023-12-29T02:44:18;5.20;78.45
67641;SHT31;54434;50.096;20.082;2023-12-29T02:46:54;5.17;78.41
67641;SHT31;54434;50.096;20.082;2023-12-29T02:49:31;5.16;78.48
67641;SHT31;54434;50.096;20.082;2023-12-29T02:52:08;5.10;78.51
67641;SHT31;54434;50.096;20.082;2023-12-29T02:54:45;5.04;78.57
67641;SHT31;54434;50.096;20.082;2023-12-29T02:57:21;5.00;78.53
67641;SHT31;54434;50.096;20.082;2023-12-29T02:59:59;4.97;78.68
67641;SHT31;54434;50.096;20.082;2023-12-29T03:02:36;4.90;78.73
67641;SHT31;54434;50.096;20.082;2023-12-29T03:05:14;4.84;78.83
67641;SHT31;54434;50.096;20.082;2023-12-29T03:07:50;4.80;78.93
67641;SHT31;54434;50.096;20.082;2023-12-29T03:10:26;4.76;78.96
67641;SHT31;54434;50.096;20.082;2023-12-29T03:13:03;4.73;78.98
67641;SHT31;54434;50.096;20.082;2023-12-29T03:15:41;4.69;78.99
67641;SHT31;54434;50.096;20.082;2023-12-29T03:18:17;4.65;79.07
67641;SHT31;54434;50.096;20.082;2023-12-29T03:20:55;4.58;79.06
67641;SHT31;54434;50.096;20.082;2023-12-29T03:23:31;4.51;79.17
67641;SHT31;54434;50.096;20.082;2023-12-29T03:26:08;4.47;79.30
67641;SHT31;54434;50.096;20.082;2023-12-29T03:28:44;4.44;79.45
67641;SHT31;54434;50.096;20.082;2023-12-29T03:31:20;4.43;79.61
67641;SHT31;54434;50.096;20.082;2023-12-29T03:33:57;4.42;79.72
67641;SHT31;54434;50.096;20.082;2023-12-29T03:36:33;4.41;79.74
67641;SHT31;54434;50.096;20.082;2023-12-29T03:39:10;4.37;79.69
67641;SHT31;54434;50.096;20.082;2023-12-29T03:41:46;4.34;79.65
67641;SHT31;54434;50.096;20.082;2023-12-29T03:44:23;4.30;79.66
67641;SHT31;54434;50.096;20.082;2023-12-29T03:46:59;4.25;79.48
67641;SHT31;54434;50.096;20.082;2023-12-29T03:49:35;4.20;79.52
67641;SHT31;54434;50.096;20.082;2023-12-29T03:52:12;4.14;79.45
67641;SHT31;54434;50.096;20.082;2023-12-29T03:54:49;4.09;79.59
67641;SHT31;54434;50.096;20.082;2023-12-29T03:57:25;4.04;79.50
67641;SHT31;54434;50.096;20.082;2023-12-29T04:00:02;3.98;79.61
67641;SHT31;54434;50.096;20.082;2023-12-29T04:02:44;3.94;79.73
67641;SHT31;54434;50.096;20.082;2023-12-29T04:05:20;3.90;79.77
67641;SHT31;54434;50.096;20.082;2023-12-29T04:07:57;3.87;79.79
67641;SHT31;54434;50.096;20.082;2023-12-29T04:10:38;3.81;79.86
67641;SHT31;54434;50.096;20.082;2023-12-29T04:13:15;3.73;79.77
67641;SHT31;54434;50.096;20.082;2023-12-29T04:15:51;3.68;79.90
67641;SHT31;54434;50.096;20.082;2023-12-29T04:18:28;3.63;79.97
67641;SHT31;54434;50.096;20.082;2023-12-29T04:21:05;3.55;79.84
67641;SHT31;54434;50.096;20.082;2023-12-29T04:23:45;3.49;79.96
67641;SHT31;54434;50.096;20.082;2023-12-29T04:26:22;3.44;80.04
67641;SHT31;54434;50.096;20.082;2023-12-29T04:28:58;3.40;80.30
67641;SHT31;54434;50.096;20.082;2023-12-29T04:31:35;3.38;80.46
67641;SHT31;54434;50.096;20.082;2023-12-29T04:34:11;3.32;80.41
67641;SHT31;54434;50.096;20.082;2023-12-29T04:36:48;3.27;80.34
67641;SHT31;54434;50.096;20.082;2023-12-29T04:39:24;3.21;80.29
67641;SHT31;54434;50.096;20.082;2023-12-29T04:42:01;3.16;80.29
67641;SHT31;54434;50.096;20.082;2023-12-29T04:44:39;3.12;80.44
67641;SHT31;54434;50.096;20.082;2023-12-29T04:47:15;3.10;80.59
67641;SHT31;54434;50.096;20.082;2023-12-29T04:49:51;3.03;80.54
67641;SHT31;54434;50.096;20.082;2023-12-29T04:52:28;2.96;80.57
67641;SHT31;54434;50.096;20.082;2023-12-29T04:55:05;2.91;80.60
67641;SHT31;54434;50.096;20.082;2023-12-29T04:57:43;2.88;80.65
67641;SHT31;54434;50.096;20.082;2023-12-29T05:00:20;2.83;80.66
67641;SHT31;54434;50.096;20.082;2023-12-29T05:02:56;2.79;80.83
67641;SHT31;54434;50.096;20.082;2023-12-29T05:05:33;2.79;80.91
67641;SHT31;54434;50.096;20.082;2023-12-29T05:08:10;2.81;81.08
67641;SHT31;54434;50.096;20.082;2023-12-29T05:10:46;2.81;80.97
67641;SHT31;54434;50.096;20.082;2023-12-29T05:13:23;2.87;81.34
67641;SHT31;54434;50.096;20.082;2023-12-29T05:16:00;2.91;81.33
67641;SHT31;54434;50.096;20.082;2023-12-29T05:18:37;3.01;81.90
67641;SHT31;54434;50.096;20.082;2023-12-29T05:21:17;3.12;82.21
67641;SHT31;54434;50.096;20.082;2023-12-29T05:23:56;3.25;82.43
67641;SHT31;54434;50.096;20.082;2023-12-29T05:26:32;3.37;82.68
67641;SHT31;54434;50.096;20.082;2023-12-29T05:29:08;3.49;82.94
67641;SHT31;54434;50.096;20.082;2023-12-29T05:31:45;3.64;83.13
67641;SHT31;54434;50.096;20.082;2023-12-29T05:34:21;3.77;83.20
67641;SHT31;54434;50.096;20.082;2023-12-29T05:37:04;3.89;83.21
67641;SHT31;54434;50.096;20.082;2023-12-29T05:39:49;4.00;83.30
67641;SHT31;54434;50.096;20.082;2023-12-29T05:42:26;4.11;83.23
67641;SHT31;54434;50.096;20.082;2023-12-29T05:45:03;4.18;83.07
67641;SHT31;54434;50.096;20.082;2023-12-29T05:47:42;4.21;82.83
67641;SHT31;54434;50.096;20.082;2023-12-29T05:50:19;4.25;82.72
67641;SHT31;54434;50.096;20.082;2023-12-29T05:52:56;4.31;82.74
67641;SHT31;54434;50.096;20.082;2023-12-29T05:55:32;4.37;82.79
67641;SHT31;54434;50.096;20.082;2023-12-29T05:58:09;4.44;82.80
67641;SHT31;54434;50.096;20.082;2023-12-29T06:00:47;4.53;82.79
67641;SHT31;54434;50.096;20.082;2023-12-29T06:03:24;4.60;82.77
67641;SHT31;54434;50.096;20.082;2023-12-29T06:06:01;4.69;82.66
67641;SHT31;54434;50.096;20.082;2023-12-29T06:08:38;4.77;82.53
67641;SHT31;54434;50.096;20.082;2023-12-29T06:11:17;4.85;82.44
67641;SHT31;54434;50.096;20.082;2023-12-29T06:13:54;4.92;82.28
67641;SHT31;54434;50.096;20.082;2023-12-29T06:16:31;4.98;82.15
67641;SHT31;54434;50.096;20.082;2023-12-29T06:19:07;5.05;82.12
67641;SHT31;54434;50.096;20.082;2023-12-29T06:21:44;5.11;82.07
67641;SHT31;54434;50.096;20.082;2023-12-29T06:24:21;5.17;81.94
67641;SHT31;54434;50.096;20.082;2023-12-29T06:26:58;5.21;81.86
67641;SHT31;54434;50.096;20.082;2023-12-29T06:29:35;5.27;81.76
67641;SHT31;54434;50.096;20.082;2023-12-29T06:32:13;5.32;81.65
67641;SHT31;54434;50.096;20.082;2023-12-29T06:34:50;5.37;81.55
67641;SHT31;54434;50.096;20.082;2023-12-29T06:37:27;5.41;81.51
67641;SHT31;54434;50.096;20.082;2023-12-29T06:40:05;5.44;81.47
67641;SHT31;54434;50.096;20.082;2023-12-29T06:42:43;5.48;81.40
67641;SHT31;54434;50.096;20.082;2023-12-29T06:45:20;5.51;81.36
67641;SHT31;54434;50.096;20.082;2023-12-29T06:47:57;5.56;81.24
67641;SHT31;54434;50.096;20.082;2023-12-29T06:50:35;5.60;81.15
67641;SHT31;54434;50.096;20.082;2023-12-29T06:53:12;5.64;81.00
67641;SHT31;54434;50.096;20.082;2023-12-29T06:55:49;5.69;80.83
67641;SHT31;54434;50.096;20.082;2023-12-29T06:58:26;5.72;80.68
67641;SHT31;54434;50.096;20.082;2023-12-29T07:01:03;5.76;80.58
67641;SHT31;54434;50.096;20.082;2023-12-29T07:03:40;5.81;80.51
67641;SHT31;54434;50.096;20.082;2023-12-29T07:06:17;5.86;80.43
67641;SHT31;54434;50.096;20.082;2023-12-29T07:08:54;5.91;80.34
67641;SHT31;54434;50.096;20.082;2023-12-29T07:11:33;5.96;80.30
67641;SHT31;54434;50.096;20.082;2023-12-29T07:14:10;6.03;80.22
67641;SHT31;54434;50.096;20.082;2023-12-29T07:16:47;6.09;80.03
67641;SHT31;54434;50.096;20.082;2023-12-29T07:19:23;6.18;79.84
67641;SHT31;54434;50.096;20.082;2023-12-29T07:22:07;6.25;79.53
67641;SHT31;54434;50.096;20.082;2023-12-29T07:24:44;6.32;79.22
67641;SHT31;54434;50.096;20.082;2023-12-29T07:27:21;6.41;78.81
67641;SHT31;54434;50.096;20.082;2023-12-29T07:29:58;6.50;78.43
67641;SHT31;54434;50.096;20.082;2023-12-29T07:32:36;6.59;78.24
67641;SHT31;54434;50.096;20.082;2023-12-29T07:35:13;6.69;77.95
67641;SHT31;54434;50.096;20.082;2023-12-29T07:37:54;6.77;77.83
67641;SHT31;54434;50.096;20.082;2023-12-29T07:40:31;6.84;77.53
67641;SHT31;54434;50.096;20.082;2023-12-29T07:43:09;6.92;77.33
67641;SHT31;54434;50.096;20.082;2023-12-29T07:45:46;7.00;76.86
67641;SHT31;54434;50.096;20.082;2023-12-29T07:48:33;7.10;76.58
67641;SHT31;54434;50.096;20.082;2023-12-29T07:51:11;7.22;76.47
67641;SHT31;54434;50.096;20.082;2023-12-29T07:53:48;7.36;76.25
67641;SHT31;54434;50.096;20.082;2023-12-29T07:56:24;7.49;75.77
67641;SHT31;54434;50.096;20.082;2023-12-29T07:59:01;7.61;75.30
67641;SHT31;54434;50.096;20.082;2023-12-29T08:01:38;7.72;75.10
67641;SHT31;54434;50.096;20.082;2023-12-29T08:04:14;7.83;74.91
67641;SHT31;54434;50.096;20.082;2023-12-29T08:06:51;8.01;74.75
67641;SHT31;54434;50.096;20.082;2023-12-29T08:09:28;8.24;74.53
67641;SHT31;54434;50.096;20.082;2023-12-29T08:12:05;8.46;73.89
67641;SHT31;54434;50.096;20.082;2023-12-29T08:14:42;8.69;73.51
67641;SHT31;54434;50.096;20.082;2023-12-29T08:17:19;8.91;72.94
67641;SHT31;54434;50.096;20.082;2023-12-29T08:19:55;9.15;72.41
67641;SHT31;54434;50.096;20.082;2023-12-29T08:22:32;9.40;71.90
67641;SHT31;54434;50.096;20.082;2023-12-29T08:25:10;9.61;71.39
67641;SHT31;54434;50.096;20.082;2023-12-29T08:27:48;9.80;70.94
67641;SHT31;54434;50.096;20.082;2023-12-29T08:30:24;9.99;70.74
67641;SHT31;54434;50.096;20.082;2023-12-29T08:33:01;10.22;70.16
67641;SHT31;54434;50.096;20.082;2023-12-29T08:35:39;10.40;69.83
67641;SHT31;54434;50.096;20.082;2023-12-29T08:38:17;10.61;69.65
67641;SHT31;54434;50.096;20.082;2023-12-29T08:40:54;10.82;68.99
67641;SHT31;54434;50.096;20.082;2023-12-29T08:43:30;11.04;68.45
67641;SHT31;54434;50.096;20.082;2023-12-29T08:46:08;11.25;67.90
67641;SHT31;54434;50.096;20.082;2023-12-29T08:48:44;11.41;67.37
67641;SHT31;54434;50.096;20.082;2023-12-29T08:51:21;11.52;67.06
67641;SHT31;54434;50.096;20.082;2023-12-29T08:53:57;11.64;66.77
67641;SHT31;54434;50.096;20.082;2023-12-29T08:56:34;11.75;65.82
67641;SHT31;54434;50.096;20.082;2023-12-29T08:59:10;11.88;65.70
67641;SHT31;54434;50.096;20.082;2023-12-29T09:01:47;12.00;65.34
67641;SHT31;54434;50.096;20.082;2023-12-29T09:04:23;12.13;65.23
67641;SHT31;54434;50.096;20.082;2023-12-29T09:07:00;12.30;64.73
67641;SHT31;54434;50.096;20.082;2023-12-29T09:09:38;12.43;64.08
67641;SHT31;54434;50.096;20.082;2023-12-29T09:12:14;12.52;63.12
67641;SHT31;54434;50.096;20.082;2023-12-29T09:14:51;12.58;63.56
67641;SHT31;54434;50.096;20.082;2023-12-29T09:17:27;12.63;63.53
67641;SHT31;54434;50.096;20.082;2023-12-29T09:20:05;12.70;63.56
67641;SHT31;54434;50.096;20.082;2023-12-29T09:22:43;12.71;62.83
67641;SHT31;54434;50.096;20.082;2023-12-29T09:25:20;12.66;62.38
67641;SHT31;54434;50.096;20.082;2023-12-29T09:27:57;12.61;62.75
67641;SHT31;54434;50.096;20.082;2023-12-29T09:30:34;12.54;62.68
67641;SHT31;54434;50.096;20.082;2023-12-29T09:33:10;12.45;62.33
67641;SHT31;54434;50.096;20.082;2023-12-29T09:35:47;12.39;62.54
67641;SHT31;54434;50.096;20.082;2023-12-29T09:38:23;12.36;62.77
67641;SHT31;54434;50.096;20.082;2023-12-29T09:41:02;12.30;62.07
67641;SHT31;54434;50.096;20.082;2023-12-29T09:43:44;12.23;62.10
67641;SHT31;54434;50.096;20.082;2023-12-29T09:46:22;12.19;62.12
67641;SHT31;54434;50.096;20.082;2023-12-29T09:49:03;12.14;61.86
67641;SHT31;54434;50.096;20.082;2023-12-29T09:51:42;12.12;62.41
67641;SHT31;54434;50.096;20.082;2023-12-29T09:54:20;12.10;62.14
67641;SHT31;54434;50.096;20.082;2023-12-29T09:56:56;12.12;62.44
67641;SHT31;54434;50.096;20.082;2023-12-29T09:59:35;12.14;62.52
67641;SHT31;54434;50.096;20.082;2023-12-29T10:02:14;12.09;61.92
67641;SHT31;54434;50.096;20.082;2023-12-29T10:04:50;12.04;61.93
67641;SHT31;54434;50.096;20.082;2023-12-29T10:07:27;12.02;61.86
67641;SHT31;54434;50.096;20.082;2023-12-29T10:10:12;11.99;62.05
67641;SHT31;54434;50.096;20.082;2023-12-29T10:12:50;12.00;61.91
67641;SHT31;54434;50.096;20.082;2023-12-29T10:15:37;12.03;62.20
67641;SHT31;54434;50.096;20.082;2023-12-29T10:18:42;12.04;61.98
67641;SHT31;54434;50.096;20.082;2023-12-29T10:21:31;12.05;61.73
67641;SHT31;54434;50.096;20.082;2023-12-29T10:24:18;12.02;61.25
67641;SHT31;54434;50.096;20.082;2023-12-29T10:26:55;11.98;61.03
67641;SHT31;54434;50.096;20.082;2023-12-29T10:29:32;11.97;61.26
67641;SHT31;54434;50.096;20.082;2023-12-29T10:32:09;12.00;61.35
67641;SHT31;54434;50.096;20.082;2023-12-29T10:34:46;12.01;61.31
67641;SHT31;54434;50.096;20.082;2023-12-29T10:37:25;12.05;61.26
67641;SHT31;54434;50.096;20.082;2023-12-29T10:40:01;12.07;61.50
67641;SHT31;54434;50.096;20.082;2023-12-29T10:42:43;12.08;61.20
67641;SHT31;54434;50.096;20.082;2023-12-29T10:45:29;12.11;61.09
67641;SHT31;54434;50.096;20.082;2023-12-29T10:48:08;12.15;61.30
67641;SHT31;54434;50.096;20.082;2023-12-29T10:50:47;12.16;61.11
67641;SHT31;54434;50.096;20.082;2023-12-29T10:53:23;12.19;60.92
67641;SHT31;54434;50.096;20.082;2023-12-29T10:56:00;12.20;61.13
67641;SHT31;54434;50.096;20.082;2023-12-29T10:58:37;12.23;61.05
67641;SHT31;54434;50.096;20.082;2023-12-29T11:01:15;12.25;60.78
67641;SHT31;54434;50.096;20.082;2023-12-29T11:04:00;12.28;60.80
67641;SHT31;54434;50.096;20.082;2023-12-29T11:06:44;12.30;60.28
67641;SHT31;54434;50.096;20.082;2023-12-29T11:09:30;12.31;60.00
67641;SHT31;54434;50.096;20.082;2023-12-29T11:12:09;12.34;60.29
67641;SHT31;54434;50.096;20.082;2023-12-29T11:14:47;12.36;60.09
67641;SHT31;54434;50.096;20.082;2023-12-29T11:17:24;12.38;59.95
67641;SHT31;54434;50.096;20.082;2023-12-29T11:20:05;12.38;59.61
67641;SHT31;54434;50.096;20.082;2023-12-29T11:23:01;12.37;59.76
67641;SHT31;54434;50.096;20.082;2023-12-29T11:25:39;12.38;59.78
67641;SHT31;54434;50.096;20.082;2023-12-29T11:28:20;12.40;60.11
67641;SHT31;54434;50.096;20.082;2023-12-29T11:30:57;12.39;59.52
67641;SHT31;54434;50.096;20.082;2023-12-29T11:33:38;12.38;59.63
67641;SHT31;54434;50.096;20.082;2023-12-29T11:36:23;12.38;59.85
67641;SHT31;54434;50.096;20.082;2023-12-29T11:39:10;12.37;59.63
67641;SHT31;54434;50.096;20.082;2023-12-29T11:42:00;12.36;60.04
67641;SHT31;54434;50.096;20.082;2023-12-29T11:44:46;12.35;60.28
67641;SHT31;54434;50.096;20.082;2023-12-29T11:47:37;12.34;60.37
67641;SHT31;54434;50.096;20.082;2023-12-29T11:50:13;12.31;60.30
67641;SHT31;54434;50.096;20.082;2023-12-29T11:53:02;12.32;60.24
67641;SHT31;54434;50.096;20.082;2023-12-29T11:55:39;12.31;60.30
67641;SHT31;54434;50.096;20.082;2023-12-29T11:58:26;12.31;60.68
67641;SHT31;54434;50.096;20.082;2023-12-29T12:01:03;12.30;60.61
67641;SHT31;54434;50.096;20.082;2023-12-29T12:03:39;12.28;60.58
67641;SHT31;54434;50.096;20.082;2023-12-29T12:06:16;12.25;60.66
67641;SHT31;54434;50.096;20.082;2023-12-29T12:09:22;12.22;60.91
67641;SHT31;54434;50.096;20.082;2023-12-29T12:11:58;12.17;60.92
67641;SHT31;54434;50.096;20.082;2023-12-29T12:14:49;12.14;61.27
67641;SHT31;54434;50.096;20.082;2023-12-29T12:17:33;12.08;61.06
67641;SHT31;54434;50.096;20.082;2023-12-29T12:20:11;12.05;61.11
67641;SHT31;54434;50.096;20.082;2023-12-29T12:22:49;12.01;61.39
67641;SHT31;54434;50.096;20.082;2023-12-29T12:25:32;11.98;61.46
67641;SHT31;54434;50.096;20.082;2023-12-29T12:28:13;11.94;61.46
67641;SHT31;54434;50.096;20.082;2023-12-29T12:30:51;11.90;61.56
67641;SHT31;54434;50.096;20.082;2023-12-29T12:33:41;11.88;61.46
67641;SHT31;54434;50.096;20.082;2023-12-29T12:36:28;11.86;61.50
67641;SHT31;54434;50.096;20.082;2023-12-29T12:39:04;11.84;61.27
67641;SHT31;54434;50.096;20.082;2023-12-29T12:41:41;11.80;61.21
67641;SHT31;54434;50.096;20.082;2023-12-29T12:44:18;11.75;61.19
67641;SHT31;54434;50.096;20.082;2023-12-29T12:47:01;11.71;61.41
67641;SHT31;54434;50.096;20.082;2023-12-29T12:49:42;11.64;61.46
67641;SHT31;54434;50.096;20.082;2023-12-29T12:52:19;11.60;61.52
67641;SHT31;54434;50.096;20.082;2023-12-29T12:54:56;11.55;61.37
67641;SHT31;54434;50.096;20.082;2023-12-29T12:57:33;11.53;61.22
67641;SHT31;54434;50.096;20.082;2023-12-29T13:00:12;11.51;61.10
67641;SHT31;54434;50.096;20.082;2023-12-29T13:02:53;11.48;61.46
67641;SHT31;54434;50.096;20.082;2023-12-29T13:05:30;11.45;61.19
67641;SHT31;54434;50.096;20.082;2023-12-29T13:08:08;11.43;61.18
67641;SHT31;54434;50.096;20.082;2023-12-29T13:10:57;11.38;60.88
67641;SHT31;54434;50.096;20.082;2023-12-29T13:13:41;11.35;61.08
67641;SHT31;54434;50.096;20.082;2023-12-29T13:16:17;11.33;61.15
67641;SHT31;54434;50.096;20.082;2023-12-29T13:22:05;11.29;60.92
67641;SHT31;54434;50.096;20.082;2023-12-29T13:24:45;11.29;60.84
67641;SHT31;54434;50.096;20.082;2023-12-29T13:27:22;11.28;61.11
67641;SHT31;54434;50.096;20.082;2023-12-29T13:29:59;11.26;61.02
67641;SHT31;54434;50.096;20.082;2023-12-29T13:32:36;11.24;61.29
67641;SHT31;54434;50.096;20.082;2023-12-29T13:35:20;11.22;61.07
67641;SHT31;54434;50.096;20.082;2023-12-29T13:38:08;11.18;60.93
67641;SHT31;54434;50.096;20.082;2023-12-29T13:40:58;11.19;60.83
67641;SHT31;54434;50.096;20.082;2023-12-29T13:43:39;11.15;61.01
67641;SHT31;54434;50.096;20.082;2023-12-29T13:46:18;11.13;61.18
67641;SHT31;54434;50.096;20.082;2023-12-29T13:48:55;11.11;61.16
67641;SHT31;54434;50.096;20.082;2023-12-29T13:51:33;11.08;61.10
67641;SHT31;54434;50.096;20.082;2023-12-29T13:54:10;11.06;61.22
67641;SHT31;54434;50.096;20.082;2023-12-29T13:56:54;11.03;61.26
67641;SHT31;54434;50.096;20.082;2023-12-29T13:59:33;10.99;61.41
67641;SHT31;54434;50.096;20.082;2023-12-29T14:02:31;10.97;61.57
67641;SHT31;54434;50.096;20.082;2023-12-29T14:05:22;10.93;61.60
67641;SHT31;54434;50.096;20.082;2023-12-29T14:08:10;10.88;61.75
67641;SHT31;54434;50.096;20.082;2023-12-29T14:10:56;10.83;61.80
67641;SHT31;54434;50.096;20.082;2023-12-29T14:13:33;10.79;61.77
67641;SHT31;54434;50.096;20.082;2023-12-29T14:16:14;10.75;61.76
67641;SHT31;54434;50.096;20.082;2023-12-29T14:18:56;10.72;61.77
67641;SHT31;54434;50.096;20.082;2023-12-29T14:21:35;10.68;61.89
67641;SHT31;54434;50.096;20.082;2023-12-29T14:24:13;10.64;61.89
67641;SHT31;54434;50.096;20.082;2023-12-29T14:26:59;10.60;61.99
67641;SHT31;54434;50.096;20.082;2023-12-29T14:29:42;10.56;62.10
67641;SHT31;54434;50.096;20.082;2023-12-29T14:32:19;10.51;62.16
67641;SHT31;54434;50.096;20.082;2023-12-29T14:34:55;10.48;62.16
67641;SHT31;54434;50.096;20.082;2023-12-29T14:37:32;10.44;62.32
67641;SHT31;54434;50.096;20.082;2023-12-29T14:40:12;10.39;62.43
67641;SHT31;54434;50.096;20.082;2023-12-29T14:42:48;10.35;62.49
67641;SHT31;54434;50.096;20.082;2023-12-29T14:45:24;10.32;62.53
67641;SHT31;54434;50.096;20.082;2023-12-29T14:48:01;10.28;62.66
67641;SHT31;54434;50.096;20.082;2023-12-29T14:50:40;10.22;62.81
67641;SHT31;54434;50.096;20.082;2023-12-29T14:53:17;10.17;62.97
67641;SHT31;54434;50.096;20.082;2023-12-29T14:55:54;10.12;63.01
67641;SHT31;54434;50.096;20.082;2023-12-29T14:58:30;10.07;63.06
67641;SHT31;54434;50.096;20.082;2023-12-29T15:01:08;10.05;63.19
67641;SHT31;54434;50.096;20.082;2023-12-29T15:03:45;10.00;63.34
67641;SHT31;54434;50.096;20.082;2023-12-29T15:06:22;9.93;63.48
67641;SHT31;54434;50.096;20.082;2023-12-29T15:08:58;9.88;63.61
67641;SHT31;54434;50.096;20.082;2023-12-29T15:11:35;9.82;63.70
67641;SHT31;54434;50.096;20.082;2023-12-29T15:14:17;9.76;63.85
67641;SHT31;54434;50.096;20.082;2023-12-29T15:16:55;9.71;63.95
67641;SHT31;54434;50.096;20.082;2023-12-29T15:19:32;9.63;64.15
67641;SHT31;54434;50.096;20.082;2023-12-29T15:22:10;9.57;64.23
67641;SHT31;54434;50.096;20.082;2023-12-29T15:24:46;9.51;64.32
67641;SHT31;54434;50.096;20.082;2023-12-29T15:27:23;9.46;64.43
67641;SHT31;54434;50.096;20.082;2023-12-29T15:30:01;9.42;64.50
67641;SHT31;54434;50.096;20.082;2023-12-29T15:32:41;9.36;64.63
67641;SHT31;54434;50.096;20.082;2023-12-29T15:35:19;9.30;64.77
67641;SHT31;54434;50.096;20.082;2023-12-29T15:37:56;9.25;64.81
67641;SHT31;54434;50.096;20.082;2023-12-29T15:40:33;9.22;64.88
67641;SHT31;54434;50.096;20.082;2023-12-29T15:43:10;9.16;65.02
67641;SHT31;54434;50.096;20.082;2023-12-29T15:45:47;9.11;65.13
67641;SHT31;54434;50.096;20.082;2023-12-29T15:48:23;9.04;65.28
67641;SHT31;54434;50.096;20.082;2023-12-29T15:51:00;8.97;65.40
67641;SHT31;54434;50.096;20.082;2023-12-29T15:53:39;8.89;65.54
67641;SHT31;54434;50.096;20.082;2023-12-29T15:56:19;8.85;65.67
67641;SHT31;54434;50.096;20.082;2023-12-29T15:58:55;8.78;65.79
67641;SHT31;54434;50.096;20.082;2023-12-29T16:01:32;8.72;65.92
67641;SHT31;54434;50.096;20.082;2023-12-29T16:04:09;8.66;66.06
67641;SHT31;54434;50.096;20.082;2023-12-29T16:06:45;8.60;66.22
67641;SHT31;54434;50.096;20.082;2023-12-29T16:09:22;8.56;66.30
67641;SHT31;54434;50.096;20.082;2023-12-29T16:11:58;8.51;66.44
67641;SHT31;54434;50.096;20.082;2023-12-29T16:14:35;8.44;66.56
67641;SHT31;54434;50.096;20.082;2023-12-29T16:17:12;8.38;66.60
67641;SHT31;54434;50.096;20.082;2023-12-29T16:19:48;8.33;66.68
67641;SHT31;54434;50.096;20.082;2023-12-29T16:22:25;8.27;66.80
67641;SHT31;54434;50.096;20.082;2023-12-29T16:25:01;8.20;66.88
67641;SHT31;54434;50.096;20.082;2023-12-29T16:27:49;8.15;66.93
67641;SHT31;54434;50.096;20.082;2023-12-29T16:30:26;8.09;67.07
67641;SHT31;54434;50.096;20.082;2023-12-29T16:33:03;8.02;67.17
67641;SHT31;54434;50.096;20.082;2023-12-29T16:35:41;7.96;67.26
67641;SHT31;54434;50.096;20.082;2023-12-29T16:38:19;7.91;67.38